sensor_id;sensor_type;location;lat;lon;timestamp;pressure;altitude;pressure_sealevel;temperature;humidity
51359;BME280;37448;51.588;7.248;2022-07-18T00:01:17;101699.75;;;18.14;55.86
51359;BME280;37448;51.588;7.248;2022-07-18T00:03:47;101692.94;;;18.08;56.21
51359;BME280;37448;51.588;7.248;2022-07-18T00:06:17;101696.97;;;18.11;56.01
51359;BME280;37448;51.588;7.248;2022-07-18T00:08:48;101696.16;;;18.10;55.73
51359;BME280;37448;51.588;7.248;2022-07-18T00:11:19;101694.19;;;18.11;56.07
51359;BME280;37448;51.588;7.248;2022-07-18T00:13:49;101690.94;;;17.98;56.22
51359;BME280;37448;51.588;7.248;2022-07-18T00:16:22;101694.13;;;18.04;56.38
51359;BME280;37448;51.588;7.248;2022-07-18T00:18:53;101692.56;;;18.03;55.87
51359;BME280;37448;51.588;7.248;2022-07-18T00:21:25;101683.41;;;17.99;56.56
51359;BME280;37448;51.588;7.248;2022-07-18T00:23:56;101680.16;;;17.90;57.12
51359;BME280;37448;51.588;7.248;2022-07-18T00:26:26;101679.34;;;17.86;57.04
51359;BME280;37448;51.588;7.248;2022-07-18T00:28:57;101673.41;;;17.91;57.13
51359;BME280;37448;51.588;7.248;2022-07-18T00:31:27;101661.06;;;17.88;57.26
51359;BME280;37448;51.588;7.248;2022-07-18T00:33:57;101670.22;;;17.89;57.68
51359;BME280;37448;51.588;7.248;2022-07-18T00:36:29;101669.41;;;17.81;57.87
51359;BME280;37448;51.588;7.248;2022-07-18T00:38:59;101667.38;;;17.78;57.88
51359;BME280;37448;51.588;7.248;2022-07-18T00:41:30;101669.28;;;17.60;58.55
51359;BME280;37448;51.588;7.248;2022-07-18T00:44:00;101667.34;;;17.71;58.32
51359;BME280;37448;51.588;7.248;2022-07-18T00:46:31;101664.91;;;17.66;58.71
51359;BME280;37448;51.588;7.248;2022-07-18T00:49:01;101657.78;;;17.65;59.22
51359;BME280;37448;51.588;7.248;2022-07-18T00:51:32;101654.59;;;17.66;59.23
51359;BME280;37448;51.588;7.248;2022-07-18T00:54:06;101653.81;;;17.66;59.13
51359;BME280;37448;51.588;7.248;2022-07-18T00:56:36;101650.63;;;17.60;59.26
51359;BME280;37448;51.588;7.248;2022-07-18T00:59:07;101648.16;;;17.52;59.51
51359;BME280;37448;51.588;7.248;2022-07-18T01:01:38;101662.44;;;17.54;59.32
51359;BME280;37448;51.588;7.248;2022-07-18T01:04:19;101664.81;;;17.48;59.83
51359;BME280;37448;51.588;7.248;2022-07-18T01:06:51;101663.88;;;17.30;60.00
51359;BME280;37448;51.588;7.248;2022-07-18T01:09:21;101661.91;;;17.34;59.69
51359;BME280;37448;51.588;7.248;2022-07-18T01:11:52;101673.38;;;17.29;59.82
51359;BME280;37448;51.588;7.248;2022-07-18T01:14:24;101661.44;;;17.21;59.95
51359;BME280;37448;51.588;7.248;2022-07-18T01:16:55;101660.63;;;17.21;59.87
51359;BME280;37448;51.588;7.248;2022-07-18T01:19:25;101661.41;;;17.18;60.26
51359;BME280;37448;51.588;7.248;2022-07-18T01:21:55;101671.75;;;17.21;60.21
51359;BME280;37448;51.588;7.248;2022-07-18T01:24:26;101674.50;;;17.21;60.19
51359;BME280;37448;51.588;7.248;2022-07-18T01:26:56;101668.59;;;17.22;60.14
51359;BME280;37448;51.588;7.248;2022-07-18T01:29:26;101666.13;;;17.14;60.40
51359;BME280;37448;51.588;7.248;2022-07-18T01:32:03;101658.94;;;17.06;60.26
51359;BME280;37448;51.588;7.248;2022-07-18T01:34:34;101660.44;;;17.00;60.67
51359;BME280;37448;51.588;7.248;2022-07-18T01:37:05;101664.84;;;17.01;60.69
51359;BME280;37448;51.588;7.248;2022-07-18T01:39:36;101663.22;;;17.00;61.01
51359;BME280;37448;51.588;7.248;2022-07-18T01:42:08;101658.84;;;16.99;61.01
51359;BME280;37448;51.588;7.248;2022-07-18T01:44:39;101663.91;;;16.89;60.79
51359;BME280;37448;51.588;7.248;2022-07-18T01:47:11;101651.56;;;16.80;61.31
51359;BME280;37448;51.588;7.248;2022-07-18T01:49:42;101642.81;;;16.81;61.11
51359;BME280;37448;51.588;7.248;2022-07-18T01:52:13;101637.69;;;16.80;61.56
51359;BME280;37448;51.588;7.248;2022-07-18T01:54:43;101642.78;;;16.78;61.61
51359;BME280;37448;51.588;7.248;2022-07-18T01:57:14;101646.34;;;16.75;61.99
51359;BME280;37448;51.588;7.248;2022-07-18T01:59:44;101642.78;;;16.74;62.20
51359;BME280;37448;51.588;7.248;2022-07-18T02:02:14;101636.00;;;16.72;62.61
51359;BME280;37448;51.588;7.248;2022-07-18T02:04:45;101636.34;;;16.67;62.72
51359;BME280;37448;51.588;7.248;2022-07-18T02:07:36;101636.72;;;16.65;62.59
51359;BME280;37448;51.588;7.248;2022-07-18T02:10:09;101634.69;;;16.59;63.17
51359;BME280;37448;51.588;7.248;2022-07-18T02:12:41;101637.78;;;16.54;63.36
51359;BME280;37448;51.588;7.248;2022-07-18T02:15:13;101646.06;;;16.50;63.25
51359;BME280;37448;51.588;7.248;2022-07-18T02:17:44;101638.50;;;16.47;63.61
51359;BME280;37448;51.588;7.248;2022-07-18T02:20:15;101643.97;;;16.40;64.46
51359;BME280;37448;51.588;7.248;2022-07-18T02:22:45;101637.25;;;16.41;64.13
51359;BME280;37448;51.588;7.248;2022-07-18T02:25:16;101629.63;;;16.34;64.29
51359;BME280;37448;51.588;7.248;2022-07-18T02:27:46;101634.38;;;16.34;64.21
51359;BME280;37448;51.588;7.248;2022-07-18T02:30:17;101628.84;;;16.34;64.47
51359;BME280;37448;51.588;7.248;2022-07-18T02:32:47;101629.56;;;16.27;64.29
51359;BME280;37448;51.588;7.248;2022-07-18T02:35:17;101624.03;;;16.27;64.71
51359;BME280;37448;51.588;7.248;2022-07-18T02:37:48;101623.59;;;16.25;64.78
51359;BME280;37448;51.588;7.248;2022-07-18T02:40:18;101623.94;;;16.20;65.02
51359;BME280;37448;51.588;7.248;2022-07-18T02:42:49;101622.72;;;16.18;65.25
51359;BME280;37448;51.588;7.248;2022-07-18T02:45:19;101624.66;;;16.14;65.58
51359;BME280;37448;51.588;7.248;2022-07-18T02:47:49;101625.00;;;16.09;65.56
51359;BME280;37448;51.588;7.248;2022-07-18T02:50:20;101630.13;;;16.07;65.67
51359;BME280;37448;51.588;7.248;2022-07-18T02:52:50;101625.75;;;16.06;66.03
51359;BME280;37448;51.588;7.248;2022-07-18T02:55:21;101622.97;;;16.06;65.75
51359;BME280;37448;51.588;7.248;2022-07-18T02:57:53;101627.72;;;16.05;66.11
51359;BME280;37448;51.588;7.248;2022-07-18T03:00:23;101628.84;;;16.00;66.22
51359;BME280;37448;51.588;7.248;2022-07-18T03:02:53;101628.00;;;15.96;66.00
51359;BME280;37448;51.588;7.248;2022-07-18T03:05:24;101625.56;;;15.91;66.74
51359;BME280;37448;51.588;7.248;2022-07-18T03:07:54;101618.81;;;15.89;66.70
51359;BME280;37448;51.588;7.248;2022-07-18T03:10:24;101616.41;;;15.87;66.86
51359;BME280;37448;51.588;7.248;2022-07-18T03:12:55;101620.75;;;15.85;67.09
51359;BME280;37448;51.588;7.248;2022-07-18T03:15:25;101617.97;;;15.85;67.38
51359;BME280;37448;51.588;7.248;2022-07-18T03:17:56;101606.00;;;15.77;67.36
51359;BME280;37448;51.588;7.248;2022-07-18T03:20:26;101613.06;;;15.75;67.48
51359;BME280;37448;51.588;7.248;2022-07-18T03:22:57;101613.84;;;15.72;67.84
51359;BME280;37448;51.588;7.248;2022-07-18T03:25:27;101613.00;;;15.68;67.87
51359;BME280;37448;51.588;7.248;2022-07-18T03:27:58;101616.88;;;15.63;68.16
51359;BME280;37448;51.588;7.248;2022-07-18T03:30:28;101613.72;;;15.61;68.40
51359;BME280;37448;51.588;7.248;2022-07-18T03:32:58;101608.09;;;15.58;68.38
51359;BME280;37448;51.588;7.248;2022-07-18T03:35:29;101606.94;;;15.59;68.38
51359;BME280;37448;51.588;7.248;2022-07-18T03:37:59;101611.59;;;15.51;68.72
51359;BME280;37448;51.588;7.248;2022-07-18T03:40:30;101606.28;;;15.42;69.44
51359;BME280;37448;51.588;7.248;2022-07-18T03:43:00;101613.47;;;15.47;69.38
51359;BME280;37448;51.588;7.248;2022-07-18T03:45:30;101607.66;;;15.52;69.26
51359;BME280;37448;51.588;7.248;2022-07-18T03:48:01;101608.25;;;15.42;69.25
51359;BME280;37448;51.588;7.248;2022-07-18T03:50:31;101605.91;;;15.44;69.07
51359;BME280;37448;51.588;7.248;2022-07-18T03:53:02;101609.50;;;15.44;69.20
51359;BME280;37448;51.588;7.248;2022-07-18T03:55:32;101607.56;;;15.48;69.07
51359;BME280;37448;51.588;7.248;2022-07-18T03:58:02;101622.66;;;15.51;68.80
51359;BME280;37448;51.588;7.248;2022-07-18T04:00:33;101620.69;;;15.51;69.15
51359;BME280;37448;51.588;7.248;2022-07-18T04:03:04;101615.88;;;15.48;69.94
51359;BME280;37448;51.588;7.248;2022-07-18T04:05:35;101608.84;;;15.54;68.64
51359;BME280;37448;51.588;7.248;2022-07-18T04:08:05;101611.25;;;15.56;68.77
51359;BME280;37448;51.588;7.248;2022-07-18T04:10:35;101615.63;;;15.57;68.88
51359;BME280;37448;51.588;7.248;2022-07-18T04:13:09;101608.91;;;15.58;69.07
51359;BME280;37448;51.588;7.248;2022-07-18T04:15:41;101603.34;;;15.58;68.76
51359;BME280;37448;51.588;7.248;2022-07-18T04:18:12;101595.47;;;15.60;68.86
51359;BME280;37448;51.588;7.248;2022-07-18T04:20:42;101601.06;;;15.64;68.79
51359;BME280;37448;51.588;7.248;2022-07-18T04:23:13;101607.91;;;15.70;68.59
51359;BME280;37448;51.588;7.248;2022-07-18T04:25:43;101614.16;;;15.67;68.69
51359;BME280;37448;51.588;7.248;2022-07-18T04:28:14;101616.13;;;15.66;68.66
51359;BME280;37448;51.588;7.248;2022-07-18T04:30:44;101609.84;;;15.69;68.72
51359;BME280;37448;51.588;7.248;2022-07-18T04:33:15;101614.59;;;15.69;68.82
51359;BME280;37448;51.588;7.248;2022-07-18T04:35:45;101616.97;;;15.70;68.67
51359;BME280;37448;51.588;7.248;2022-07-18T04:38:15;101613.88;;;15.75;68.85
51359;BME280;37448;51.588;7.248;2022-07-18T04:40:46;101614.31;;;15.77;68.48
51359;BME280;37448;51.588;7.248;2022-07-18T04:43:16;101611.16;;;15.79;69.09
51359;BME280;37448;51.588;7.248;2022-07-18T04:45:47;101618.78;;;15.85;69.33
51359;BME280;37448;51.588;7.248;2022-07-18T04:48:17;101610.56;;;15.96;68.32
51359;BME280;37448;51.588;7.248;2022-07-18T04:50:47;101604.66;;;15.97;68.15
51359;BME280;37448;51.588;7.248;2022-07-18T04:53:18;101605.09;;;15.99;67.90
51359;BME280;37448;51.588;7.248;2022-07-18T04:55:48;101599.56;;;15.99;68.11
51359;BME280;37448;51.588;7.248;2022-07-18T04:58:18;101611.88;;;16.06;67.92
51359;BME280;37448;51.588;7.248;2022-07-18T05:00:49;101609.09;;;16.06;68.21
51359;BME280;37448;51.588;7.248;2022-07-18T05:03:19;101621.34;;;16.01;68.86
51359;BME280;37448;51.588;7.248;2022-07-18T05:05:50;101615.81;;;16.05;68.52
51359;BME280;37448;51.588;7.248;2022-07-18T05:08:20;101612.34;;;16.11;68.01
51359;BME280;37448;51.588;7.248;2022-07-18T05:10:50;101612.09;;;16.23;67.48
51359;BME280;37448;51.588;7.248;2022-07-18T05:13:21;101612.97;;;16.31;67.66
51359;BME280;37448;51.588;7.248;2022-07-18T05:15:51;101610.31;;;16.41;67.34
51359;BME280;37448;51.588;7.248;2022-07-18T05:18:22;101606.78;;;16.48;67.65
51359;BME280;37448;51.588;7.248;2022-07-18T05:20:52;101606.16;;;16.58;67.16
51359;BME280;37448;51.588;7.248;2022-07-18T05:23:22;101608.56;;;16.63;67.11
51359;BME280;37448;51.588;7.248;2022-07-18T05:25:54;101608.25;;;16.72;66.93
51359;BME280;37448;51.588;7.248;2022-07-18T05:28:25;101600.38;;;16.81;67.32
51359;BME280;37448;51.588;7.248;2022-07-18T05:30:55;101599.25;;;16.89;67.10
51359;BME280;37448;51.588;7.248;2022-07-18T05:33:26;101600.53;;;16.99;67.45
51359;BME280;37448;51.588;7.248;2022-07-18T05:35:56;101601.41;;;17.10;67.14
51359;BME280;37448;51.588;7.248;2022-07-18T05:38:26;101596.31;;;17.19;67.01
51359;BME280;37448;51.588;7.248;2022-07-18T05:40:57;101590.84;;;17.33;65.96
51359;BME280;37448;51.588;7.248;2022-07-18T05:43:27;101590.28;;;17.64;64.98
51359;BME280;37448;51.588;7.248;2022-07-18T05:45:58;101584.94;;;18.28;62.54
51359;BME280;37448;51.588;7.248;2022-07-18T05:48:28;101584.97;;;19.06;60.73
51359;BME280;37448;51.588;7.248;2022-07-18T05:50:58;101593.53;;;19.93;58.35
51359;BME280;37448;51.588;7.248;2022-07-18T05:53:29;101589.91;;;20.69;56.28
51359;BME280;37448;51.588;7.248;2022-07-18T05:55:59;101590.50;;;21.35;55.22
51359;BME280;37448;51.588;7.248;2022-07-18T05:58:30;101594.53;;;22.02;52.61
51359;BME280;37448;51.588;7.248;2022-07-18T06:01:00;101593.34;;;22.56;49.37
51359;BME280;37448;51.588;7.248;2022-07-18T06:03:30;101587.91;;;22.96;49.11
51359;BME280;37448;51.588;7.248;2022-07-18T06:06:01;101586.34;;;23.38;49.12
51359;BME280;37448;51.588;7.248;2022-07-18T06:08:31;101592.16;;;23.50;45.47
51359;BME280;37448;51.588;7.248;2022-07-18T06:11:02;101588.19;;;23.67;45.03
51359;BME280;37448;51.588;7.248;2022-07-18T06:13:34;101595.16;;;24.19;44.54
51359;BME280;37448;51.588;7.248;2022-07-18T06:16:05;101586.78;;;24.67;42.78
51359;BME280;37448;51.588;7.248;2022-07-18T06:18:36;101584.03;;;25.12;41.77
51359;BME280;37448;51.588;7.248;2022-07-18T06:21:06;101585.78;;;25.67;40.25
51359;BME280;37448;51.588;7.248;2022-07-18T06:23:38;101590.94;;;25.69;40.04
51359;BME280;37448;51.588;7.248;2022-07-18T06:26:09;101589.91;;;26.04;39.65
51359;BME280;37448;51.588;7.248;2022-07-18T06:28:39;101586.34;;;26.29;36.93
51359;BME280;37448;51.588;7.248;2022-07-18T06:31:09;101589.63;;;25.86;37.79
51359;BME280;37448;51.588;7.248;2022-07-18T06:33:41;101585.03;;;25.79;37.30
51359;BME280;37448;51.588;7.248;2022-07-18T06:36:12;101581.91;;;26.15;35.27
51359;BME280;37448;51.588;7.248;2022-07-18T06:38:43;101591.97;;;26.54;35.58
51359;BME280;37448;51.588;7.248;2022-07-18T06:41:13;101584.09;;;26.24;36.44
51359;BME280;37448;51.588;7.248;2022-07-18T06:43:44;101585.78;;;26.34;35.74
51359;BME280;37448;51.588;7.248;2022-07-18T06:46:15;101585.63;;;26.75;35.38
51359;BME280;37448;51.588;7.248;2022-07-18T06:48:45;101589.13;;;26.92;34.69
51359;BME280;37448;51.588;7.248;2022-07-18T06:51:16;101592.53;;;27.21;34.63
51359;BME280;37448;51.588;7.248;2022-07-18T06:53:46;101589.19;;;27.14;34.67
51359;BME280;37448;51.588;7.248;2022-07-18T06:56:17;101586.69;;;27.50;34.76
51359;BME280;37448;51.588;7.248;2022-07-18T06:58:47;101596.28;;;27.75;34.33
51359;BME280;37448;51.588;7.248;2022-07-18T07:01:20;101595.53;;;28.05;32.87
51359;BME280;37448;51.588;7.248;2022-07-18T07:03:50;101587.91;;;27.93;32.87
51359;BME280;37448;51.588;7.248;2022-07-18T07:06:21;101589.88;;;28.36;33.02
51359;BME280;37448;51.588;7.248;2022-07-18T07:08:51;101585.00;;;27.75;33.31
51359;BME280;37448;51.588;7.248;2022-07-18T07:11:21;101584.16;;;28.57;32.31
51359;BME280;37448;51.588;7.248;2022-07-18T07:13:52;101581.88;;;28.83;31.32
51359;BME280;37448;51.588;7.248;2022-07-18T07:16:22;101571.88;;;29.10;29.65
51359;BME280;37448;51.588;7.248;2022-07-18T07:18:53;101575.94;;;28.81;31.79
51359;BME280;37448;51.588;7.248;2022-07-18T07:21:23;101583.03;;;28.15;31.55
51359;BME280;37448;51.588;7.248;2022-07-18T07:23:53;101577.63;;;28.70;30.28
51359;BME280;37448;51.588;7.248;2022-07-18T07:26:24;101573.00;;;29.39;29.36
51359;BME280;37448;51.588;7.248;2022-07-18T07:28:54;101575.13;;;29.81;28.83
51359;BME280;37448;51.588;7.248;2022-07-18T07:31:25;101570.50;;;28.65;30.60
51359;BME280;37448;51.588;7.248;2022-07-18T07:33:55;101568.88;;;29.22;29.81
51359;BME280;37448;51.588;7.248;2022-07-18T07:36:25;101562.88;;;29.11;30.53
51359;BME280;37448;51.588;7.248;2022-07-18T07:38:56;101558.19;;;29.54;29.67
51359;BME280;37448;51.588;7.248;2022-07-18T07:41:26;101559.75;;;29.64;30.57
51359;BME280;37448;51.588;7.248;2022-07-18T07:43:57;101563.38;;;30.24;29.08
51359;BME280;37448;51.588;7.248;2022-07-18T07:46:27;101562.91;;;30.59;28.40
51359;BME280;37448;51.588;7.248;2022-07-18T07:48:58;101561.59;;;29.76;28.81
51359;BME280;37448;51.588;7.248;2022-07-18T07:51:28;101565.34;;;30.75;28.00
51359;BME280;37448;51.588;7.248;2022-07-18T07:53:59;101560.38;;;29.68;27.59
51359;BME280;37448;51.588;7.248;2022-07-18T07:56:29;101554.38;;;30.26;27.27
51359;BME280;37448;51.588;7.248;2022-07-18T07:58:59;101559.78;;;30.15;27.49
51359;BME280;37448;51.588;7.248;2022-07-18T08:01:31;101560.66;;;30.30;27.51
51359;BME280;37448;51.588;7.248;2022-07-18T08:04:01;101562.84;;;30.35;26.71
51359;BME280;37448;51.588;7.248;2022-07-18T08:06:32;101559.38;;;29.98;26.49
51359;BME280;37448;51.588;7.248;2022-07-18T08:09:02;101555.38;;;31.03;26.25
51359;BME280;37448;51.588;7.248;2022-07-18T08:11:33;101545.22;;;31.11;25.69
51359;BME280;37448;51.588;7.248;2022-07-18T08:14:03;101545.75;;;31.24;24.79
51359;BME280;37448;51.588;7.248;2022-07-18T08:16:34;101538.88;;;30.93;25.38
51359;BME280;37448;51.588;7.248;2022-07-18T08:19:04;101545.00;;;31.00;25.24
51359;BME280;37448;51.588;7.248;2022-07-18T08:21:35;101544.16;;;31.77;24.46
51359;BME280;37448;51.588;7.248;2022-07-18T08:24:06;101542.03;;;31.33;25.64
51359;BME280;37448;51.588;7.248;2022-07-18T08:26:36;101545.03;;;31.68;24.76
51359;BME280;37448;51.588;7.248;2022-07-18T08:29:09;101545.59;;;32.51;24.02
51359;BME280;37448;51.588;7.248;2022-07-18T08:31:39;101537.84;;;32.86;23.17
51359;BME280;37448;51.588;7.248;2022-07-18T08:34:10;101539.19;;;32.91;23.50
51359;BME280;37448;51.588;7.248;2022-07-18T08:36:40;101549.00;;;32.35;23.00
51359;BME280;37448;51.588;7.248;2022-07-18T08:39:10;101542.47;;;32.49;23.50
51359;BME280;37448;51.588;7.248;2022-07-18T08:41:43;101552.00;;;32.11;22.04
51359;BME280;37448;51.588;7.248;2022-07-18T08:44:17;101541.50;;;32.02;23.31
51359;BME280;37448;51.588;7.248;2022-07-18T08:46:51;101552.97;;;32.43;21.98
51359;BME280;37448;51.588;7.248;2022-07-18T08:49:24;101552.63;;;32.70;22.32
51359;BME280;37448;51.588;7.248;2022-07-18T08:51:54;101541.06;;;33.40;21.99
51359;BME280;37448;51.588;7.248;2022-07-18T08:54:25;101536.81;;;33.56;22.11
51359;BME280;37448;51.588;7.248;2022-07-18T08:56:56;101535.72;;;33.47;21.23
51359;BME280;37448;51.588;7.248;2022-07-18T08:59:26;101541.06;;;33.66;22.26
51359;BME280;37448;51.588;7.248;2022-07-18T09:01:57;101538.38;;;33.82;20.53
51359;BME280;37448;51.588;7.248;2022-07-18T09:04:39;101544.84;;;33.31;21.06
51359;BME280;37448;51.588;7.248;2022-07-18T09:07:11;101535.81;;;33.84;20.56
51359;BME280;37448;51.588;7.248;2022-07-18T09:09:55;101533.44;;;33.77;20.66
51359;BME280;37448;51.588;7.248;2022-07-18T09:12:28;101538.03;;;33.69;20.78
51359;BME280;37448;51.588;7.248;2022-07-18T09:15:06;101534.63;;;34.76;19.55
51359;BME280;37448;51.588;7.248;2022-07-18T09:17:37;101535.22;;;34.91;19.41
51359;BME280;37448;51.588;7.248;2022-07-18T09:20:10;101537.44;;;34.22;20.09
51359;BME280;37448;51.588;7.248;2022-07-18T09:22:46;101538.72;;;35.23;19.13
51359;BME280;37448;51.588;7.248;2022-07-18T09:25:21;101543.44;;;35.37;19.03
51359;BME280;37448;51.588;7.248;2022-07-18T09:27:53;101549.16;;;35.26;18.25
51359;BME280;37448;51.588;7.248;2022-07-18T09:30:28;101542.16;;;35.44;18.23
51359;BME280;37448;51.588;7.248;2022-07-18T09:35:44;101533.00;;;35.23;18.62
51359;BME280;37448;51.588;7.248;2022-07-18T09:38:18;101533.91;;;35.79;17.45
51359;BME280;37448;51.588;7.248;2022-07-18T09:40:52;101535.19;;;35.95;17.44
51359;BME280;37448;51.588;7.248;2022-07-18T09:43:24;101531.47;;;35.22;19.35
51359;BME280;37448;51.588;7.248;2022-07-18T09:45:55;101524.09;;;35.10;18.64
51359;BME280;37448;51.588;7.248;2022-07-18T09:48:26;101528.69;;;35.89;18.41
51359;BME280;37448;51.588;7.248;2022-07-18T09:51:01;101522.19;;;36.16;17.72
51359;BME280;37448;51.588;7.248;2022-07-18T09:53:35;101528.56;;;36.72;17.20
51359;BME280;37448;51.588;7.248;2022-07-18T09:56:08;101529.41;;;36.61;17.44
51359;BME280;37448;51.588;7.248;2022-07-18T09:58:50;101521.66;;;35.62;17.67
51359;BME280;37448;51.588;7.248;2022-07-18T10:01:22;101519.06;;;35.69;17.59
51359;BME280;37448;51.588;7.248;2022-07-18T10:03:53;101518.25;;;35.58;17.43
51359;BME280;37448;51.588;7.248;2022-07-18T10:06:23;101519.00;;;36.42;16.69
51359;BME280;37448;51.588;7.248;2022-07-18T10:08:54;101518.56;;;35.77;17.77
51359;BME280;37448;51.588;7.248;2022-07-18T10:11:25;101523.41;;;36.59;16.36
51359;BME280;37448;51.588;7.248;2022-07-18T10:13:56;101514.25;;;36.67;15.94
51359;BME280;37448;51.588;7.248;2022-07-18T10:16:26;101511.78;;;36.13;17.21
51359;BME280;37448;51.588;7.248;2022-07-18T10:18:57;101516.41;;;36.38;16.75
51359;BME280;37448;51.588;7.248;2022-07-18T10:21:27;101523.13;;;36.69;15.46
51359;BME280;37448;51.588;7.248;2022-07-18T10:24:00;101512.81;;;36.32;17.02
51359;BME280;37448;51.588;7.248;2022-07-18T10:26:31;101512.75;;;36.49;16.45
51359;BME280;37448;51.588;7.248;2022-07-18T10:31:34;101514.09;;;36.31;15.83
51359;BME280;37448;51.588;7.248;2022-07-18T10:39:32;101518.03;;;36.06;15.49
51359;BME280;37448;51.588;7.248;2022-07-18T10:44:34;101518.53;;;36.32;15.03
51359;BME280;37448;51.588;7.248;2022-07-18T10:47:12;101509.88;;;36.66;14.16
51359;BME280;37448;51.588;7.248;2022-07-18T10:57:34;101512.44;;;36.69;14.72
51359;BME280;37448;51.588;7.248;2022-07-18T11:00:15;101520.88;;;36.23;15.06
51359;BME280;37448;51.588;7.248;2022-07-18T11:02:48;101513.63;;;35.83;15.19
51359;BME280;37448;51.588;7.248;2022-07-18T11:21:23;101496.38;;;36.49;15.02
51359;BME280;37448;51.588;7.248;2022-07-18T11:26:35;101480.28;;;36.30;16.24
51359;BME280;37448;51.588;7.248;2022-07-18T11:29:09;101479.53;;;36.07;15.86
51359;BME280;37448;51.588;7.248;2022-07-18T11:31:53;101477.69;;;36.26;15.44
51359;BME280;37448;51.588;7.248;2022-07-18T11:34:25;101476.34;;;36.33;15.89
51359;BME280;37448;51.588;7.248;2022-07-18T11:36:55;101473.41;;;36.55;15.91
51359;BME280;37448;51.588;7.248;2022-07-18T11:39:30;101468.09;;;35.96;16.08
51359;BME280;37448;51.588;7.248;2022-07-18T11:42:01;101463.03;;;36.46;16.16
51359;BME280;37448;51.588;7.248;2022-07-18T11:44:32;101467.09;;;36.79;15.52
51359;BME280;37448;51.588;7.248;2022-07-18T11:47:08;101461.91;;;36.72;16.27
51359;BME280;37448;51.588;7.248;2022-07-18T11:49:39;101460.91;;;36.63;16.13
51359;BME280;37448;51.588;7.248;2022-07-18T11:52:09;101461.31;;;37.31;14.74
51359;BME280;37448;51.588;7.248;2022-07-18T11:54:40;101466.19;;;37.00;16.47
51359;BME280;37448;51.588;7.248;2022-07-18T11:57:10;101457.03;;;36.55;16.38
51359;BME280;37448;51.588;7.248;2022-07-18T11:59:42;101460.97;;;36.41;17.07
51359;BME280;37448;51.588;7.248;2022-07-18T12:02:15;101447.53;;;36.08;16.62
51359;BME280;37448;51.588;7.248;2022-07-18T12:04:45;101438.22;;;35.74;15.57
51359;BME280;37448;51.588;7.248;2022-07-18T12:07:19;101446.22;;;36.04;17.21
51359;BME280;37448;51.588;7.248;2022-07-18T12:09:50;101450.03;;;37.03;15.71
51359;BME280;37448;51.588;7.248;2022-07-18T12:12:22;101449.91;;;36.15;16.68
51359;BME280;37448;51.588;7.248;2022-07-18T12:14:58;101442.97;;;36.57;15.92
51359;BME280;37448;51.588;7.248;2022-07-18T12:17:29;101446.59;;;36.63;17.70
51359;BME280;37448;51.588;7.248;2022-07-18T12:20:14;101435.31;;;36.82;15.93
51359;BME280;37448;51.588;7.248;2022-07-18T12:23:09;101431.75;;;37.77;14.65
51359;BME280;37448;51.588;7.248;2022-07-18T12:25:55;101439.44;;;36.87;16.10
51359;BME280;37448;51.588;7.248;2022-07-18T12:28:27;101431.81;;;37.71;14.39
51359;BME280;37448;51.588;7.248;2022-07-18T12:30:58;101434.44;;;36.93;14.77
51359;BME280;37448;51.588;7.248;2022-07-18T12:33:28;101433.09;;;37.40;14.50
51359;BME280;37448;51.588;7.248;2022-07-18T12:35:59;101439.75;;;37.60;14.23
51359;BME280;37448;51.588;7.248;2022-07-18T12:38:31;101433.69;;;37.33;14.45
51359;BME280;37448;51.588;7.248;2022-07-18T12:41:01;101429.41;;;37.75;13.66
51359;BME280;37448;51.588;7.248;2022-07-18T12:43:36;101423.06;;;36.82;14.29
51359;BME280;37448;51.588;7.248;2022-07-18T12:46:09;101426.00;;;37.47;14.76
51359;BME280;37448;51.588;7.248;2022-07-18T12:48:40;101418.25;;;37.01;14.76
51359;BME280;37448;51.588;7.248;2022-07-18T12:51:11;101421.25;;;37.25;14.97
51359;BME280;37448;51.588;7.248;2022-07-18T12:53:42;101410.81;;;37.22;13.73
51359;BME280;37448;51.588;7.248;2022-07-18T12:56:13;101411.06;;;37.60;14.14
51359;BME280;37448;51.588;7.248;2022-07-18T12:58:43;101401.22;;;37.79;14.37
51359;BME280;37448;51.588;7.248;2022-07-18T13:01:14;101410.50;;;37.31;14.38
51359;BME280;37448;51.588;7.248;2022-07-18T13:03:44;101403.44;;;37.32;14.34
51359;BME280;37448;51.588;7.248;2022-07-18T13:06:14;101395.09;;;37.64;14.51
51359;BME280;37448;51.588;7.248;2022-07-18T13:08:45;101388.69;;;36.30;15.62
51359;BME280;37448;51.588;7.248;2022-07-18T13:11:15;101386.75;;;36.54;14.91
51359;BME280;37448;51.588;7.248;2022-07-18T13:13:46;101384.00;;;37.49;15.49
51359;BME280;37448;51.588;7.248;2022-07-18T13:16:16;101391.25;;;37.26;14.62
51359;BME280;37448;51.588;7.248;2022-07-18T13:18:46;101382.53;;;36.67;15.73
51359;BME280;37448;51.588;7.248;2022-07-18T13:21:17;101381.91;;;36.85;15.67
51359;BME280;37448;51.588;7.248;2022-07-18T13:23:48;101380.13;;;37.47;14.63
51359;BME280;37448;51.588;7.248;2022-07-18T13:26:18;101389.09;;;36.97;14.49
51359;BME280;37448;51.588;7.248;2022-07-18T13:28:49;101370.69;;;37.22;15.30
51359;BME280;37448;51.588;7.248;2022-07-18T13:31:19;101379.44;;;36.65;15.57
51359;BME280;37448;51.588;7.248;2022-07-18T13:33:50;101365.84;;;37.71;14.50
51359;BME280;37448;51.588;7.248;2022-07-18T13:36:20;101370.34;;;37.31;14.13
51359;BME280;37448;51.588;7.248;2022-07-18T13:38:51;101369.66;;;37.55;14.26
51359;BME280;37448;51.588;7.248;2022-07-18T13:41:21;101370.34;;;37.31;14.72
51359;BME280;37448;51.588;7.248;2022-07-18T13:43:52;101361.66;;;37.42;15.40
51359;BME280;37448;51.588;7.248;2022-07-18T13:46:22;101361.06;;;37.55;15.64
51359;BME280;37448;51.588;7.248;2022-07-18T13:48:52;101361.75;;;35.86;16.47
51359;BME280;37448;51.588;7.248;2022-07-18T13:51:23;101357.63;;;37.27;14.85